Sarasota, FL (34230)

2:54 AM EDT on April 26, 2017 (GMT -0400)
Sarasota Power and Sail Squadron | | Change Station

Elev 25 ft 27.32 °N, 82.51 °W | Updated 1 second ago

Overcast
Overcast
72.1 °F
Feels Like 76 °F
N
0.0
Wind Variable Wind from WSW
Gusts 0.0 mph

Today
High -- | Low -- °F
--% Chance of Precip.
Yesterday
High -- | Low -- °F
Precip. -- in
Pressure 29.86 in
Visibility 10.0 miles
Clouds Overcast 4500 ft
Heat Index 76 °F
Dew Point 57 °F
Humidity 59%
Rainfall 0.00 in
Snow Depth Not available.
6:55 AM 8:00 PM
Waning Crescent, 0% visible
METAR KSRQ 260553Z AUTO 26007KT 10SM OVC045 22/11 A2986 RMK AO2 SLP111 T02220111 10222 20194 50001
Pressure 29.86 in
Visibility 10.0 miles
Clouds Overcast 4500 ft
Heat Index 76 °F
Dew Point 57 °F
Humidity 59%
Rainfall 0.00 in
Snow Depth Not available.
6:55 AM 8:00 PM
Waning Crescent, 0% visible
METAR KSRQ 260553Z AUTO 26007KT 10SM OVC045 22/11 A2986 RMK AO2 SLP111 T02220111 10222 20194 50001

Get Severe Weather Alerts

Thanks for signing up!

Be on the lookout for a verification email in your inbox.

You'll start receiving the daily forecast at 8 AM.

×

10-Day Weather Forecast

Almanac

Astronomy

Apr. 26, 2017 Rise Set
Actual Time
Civil Twilight
Nautical Twilight
Astronomical Twilight
Moon
Length of Visible Light
Length of Day
Tomorrow will be .
, % of the Moon is Illuminated

Today's Extremes

State Highs State Lows

Community

WunderPhotos

WunderBlog® & News

Nearby

Air Quality

  Air Quality AQ Index Pollutant
Not available.

Snow Depth

Station Depth Elevation

Earthquake Activity

City Distance Mag. Time & Date
Minimum magnitude displayed is 2.5.

Coastal Water Temperatures

Place Temperature

Stations

Nearby Weather Stations

Station Location Temp. Windchill Dew Point Humidity Wind Precip. Elev Updated Type
                   

Watches & Warnings

There are currently no watches in effect.